createdAt,value
2023-02-19T00:01:48.682Z,87.37
2023-02-19T00:04:19.100Z,87.37
2023-02-19T00:06:48.355Z,87.14
2023-02-19T00:09:21.877Z,87.08
2023-02-19T00:11:50.430Z,86.99
2023-02-19T00:14:21.335Z,87.18
2023-02-19T00:16:50.542Z,87.03
2023-02-19T00:19:21.841Z,86.95
2023-02-19T00:21:52.176Z,87.03
2023-02-19T00:24:23.622Z,87.08
2023-02-19T00:26:51.958Z,87.13
2023-02-19T00:29:22.769Z,87.18
2023-02-19T00:31:51.911Z,87.17
2023-02-19T00:34:20.178Z,87.10
2023-02-19T00:36:48.573Z,86.99
2023-02-19T00:39:18.746Z,87.07
2023-02-19T00:41:48.726Z,87.02
2023-02-19T00:44:17.100Z,87.11
2023-02-19T00:46:47.700Z,86.92
2023-02-19T00:49:19.343Z,86.81
2023-02-19T00:51:48.116Z,86.92
2023-02-19T00:54:17.194Z,87.05
2023-02-19T00:56:45.894Z,87.01
2023-02-19T00:59:16.801Z,87.05
2023-02-19T01:01:45.839Z,86.80
2023-02-19T01:04:15.012Z,86.92
2023-02-19T01:06:43.565Z,86.40
2023-02-19T01:09:11.815Z,86.38
2023-02-19T01:11:40.451Z,86.48
2023-02-19T01:14:08.731Z,86.02
2023-02-19T01:16:38.426Z,86.30
2023-02-19T01:19:07.410Z,86.26
2023-02-19T01:21:35.715Z,86.18
2023-02-19T01:24:05.004Z,85.99
2023-02-19T01:26:35.116Z,85.97
2023-02-19T01:29:05.070Z,86.04
2023-02-19T01:31:34.358Z,85.80
2023-02-19T01:34:06.550Z,85.96
2023-02-19T01:36:36.921Z,85.93
2023-02-19T01:39:07.694Z,85.69
2023-02-19T01:41:39.021Z,85.53
2023-02-19T01:44:09.380Z,85.65
2023-02-19T01:46:38.799Z,85.88
2023-02-19T01:49:11.899Z,85.76
2023-02-19T01:51:46.055Z,85.56
2023-02-19T01:54:17.371Z,85.62
2023-02-19T01:56:48.383Z,85.61
2023-02-19T01:59:18.020Z,85.54
2023-02-19T02:01:46.912Z,85.59
2023-02-19T02:04:18.386Z,85.41
2023-02-19T02:06:52.220Z,85.38
2023-02-19T02:09:40.949Z,85.30
2023-02-19T02:12:09.569Z,85.55
2023-02-19T02:14:39.579Z,85.50
2023-02-19T02:17:18.259Z,85.46
2023-02-19T02:20:08.367Z,85.35
2023-02-19T02:22:43.409Z,85.53
2023-02-19T02:25:41.374Z,85.16
2023-02-19T02:28:29.464Z,85.17
2023-02-19T02:31:03.974Z,84.99
2023-02-19T02:33:38.012Z,84.96
2023-02-19T02:36:08.948Z,84.92
2023-02-19T02:38:41.763Z,84.50
2023-02-19T02:41:11.174Z,84.66
2023-02-19T02:43:40.690Z,84.40
2023-02-19T02:46:12.477Z,84.13
2023-02-19T02:48:45.603Z,83.95
2023-02-19T02:51:20.285Z,83.82
2023-02-19T02:54:20.682Z,83.97
2023-02-19T02:56:51.485Z,83.12
2023-02-19T02:59:23.480Z,83.21
2023-02-19T03:02:10.993Z,83.24
2023-02-19T03:05:06.705Z,83.11
2023-02-19T03:07:40.173Z,82.97
2023-02-19T03:10:13.671Z,82.97
2023-02-19T03:13:01.973Z,82.87
2023-02-19T03:15:52.368Z,83.06
2023-02-19T03:18:42.037Z,82.23
2023-02-19T03:21:11.535Z,81.95
2023-02-19T03:23:59.394Z,81.51
2023-02-19T03:26:28.856Z,81.54
2023-02-19T03:29:16.811Z,81.51
2023-02-19T03:31:48.994Z,80.73
2023-02-19T03:34:25.247Z,80.75
2023-02-19T03:37:04.534Z,80.56
2023-02-19T03:39:44.366Z,80.41
2023-02-19T03:42:28.384Z,80.13
2023-02-19T03:45:08.709Z,79.87
2023-02-19T03:47:49.160Z,80.15
2023-02-19T03:50:23.313Z,79.84
2023-02-19T03:53:00.385Z,79.92
2023-02-19T03:55:38.421Z,79.98
2023-02-19T03:58:13.353Z,79.72
2023-02-19T04:00:49.690Z,79.83
2023-02-19T04:03:24.492Z,79.91
2023-02-19T04:06:01.993Z,79.96
2023-02-19T04:08:33.392Z,79.74
2023-02-19T04:11:05.896Z,79.67
2023-02-19T04:13:43.105Z,79.37
2023-02-19T04:16:17.406Z,79.84
2023-02-19T04:18:50.799Z,79.53
2023-02-19T04:21:21.971Z,80.00
2023-02-19T04:23:50.942Z,80.22
2023-02-19T04:26:23.732Z,79.88
2023-02-19T04:28:51.982Z,79.94
2023-02-19T04:31:20.340Z,80.26
2023-02-19T04:33:48.626Z,80.07
2023-02-19T04:36:16.972Z,80.15
2023-02-19T04:38:46.826Z,80.00
2023-02-19T04:41:15.059Z,79.49
2023-02-19T04:43:43.253Z,79.78
2023-02-19T04:46:11.547Z,79.74
2023-02-19T04:48:39.772Z,79.84
2023-02-19T04:51:08.539Z,79.48
2023-02-19T04:53:37.289Z,79.70
2023-02-19T04:56:11.568Z,79.62
2023-02-19T04:58:40.642Z,79.75
2023-02-19T05:01:10.016Z,79.69
2023-02-19T05:03:38.714Z,79.59
2023-02-19T05:06:09.345Z,79.29
2023-02-19T05:08:38.300Z,79.46
2023-02-19T05:11:09.379Z,79.29
2023-02-19T05:13:39.641Z,79.76
2023-02-19T05:16:09.697Z,79.48
2023-02-19T05:18:37.983Z,79.08
2023-02-19T05:21:06.578Z,79.29
2023-02-19T05:23:34.800Z,79.23
2023-02-19T05:26:06.665Z,79.07
2023-02-19T05:28:35.021Z,79.49
2023-02-19T05:31:09.250Z,79.39
2023-02-19T05:33:38.198Z,79.43
2023-02-19T05:36:08.626Z,79.29
2023-02-19T05:38:37.263Z,79.04
2023-02-19T05:41:09.948Z,79.37
2023-02-19T05:43:38.971Z,79.39
2023-02-19T05:46:09.730Z,79.32
2023-02-19T05:48:38.163Z,79.24
2023-02-19T05:51:09.128Z,79.30
2023-02-19T05:53:38.155Z,79.53
2023-02-19T05:56:06.881Z,79.30
2023-02-19T05:58:35.150Z,79.41
2023-02-19T06:01:03.356Z,79.07
2023-02-19T06:03:32.974Z,79.37
2023-02-19T06:06:01.185Z,79.20
2023-02-19T06:08:29.485Z,78.89
2023-02-19T06:10:57.719Z,78.99
2023-02-19T06:13:25.898Z,79.12
2023-02-19T06:15:54.231Z,78.94
2023-02-19T06:18:22.550Z,78.77
2023-02-19T06:20:52.218Z,78.54
2023-02-19T06:23:20.499Z,78.93
2023-02-19T06:25:48.992Z,79.27
2023-02-19T06:28:17.219Z,79.16
2023-02-19T06:30:45.439Z,79.55
2023-02-19T06:33:13.653Z,79.50
2023-02-19T06:35:41.819Z,79.50
2023-02-19T06:38:11.534Z,79.80
2023-02-19T06:40:39.873Z,79.70
2023-02-19T06:43:08.811Z,80.04
2023-02-19T06:45:37.786Z,80.48
2023-02-19T06:48:06.774Z,80.67
2023-02-19T06:50:35.258Z,80.88
2023-02-19T06:53:03.559Z,80.84
2023-02-19T06:55:33.170Z,81.07
2023-02-19T06:58:01.416Z,81.09
2023-02-19T07:00:29.566Z,81.11
2023-02-19T07:02:57.875Z,81.19
2023-02-19T07:05:26.216Z,81.17
2023-02-19T07:07:54.416Z,81.53
2023-02-19T07:10:22.632Z,81.24
2023-02-19T07:12:53.106Z,81.37
2023-02-19T07:15:21.666Z,81.06
2023-02-19T07:17:49.856Z,81.07
2023-02-19T07:20:18.354Z,80.89
2023-02-19T07:22:46.769Z,80.94
2023-02-19T07:25:15.197Z,80.94
2023-02-19T07:27:43.441Z,80.65
2023-02-19T07:30:14.068Z,80.85
2023-02-19T07:32:42.747Z,81.08
2023-02-19T07:35:11.018Z,80.98
2023-02-19T07:37:39.319Z,80.75
2023-02-19T07:40:08.251Z,80.86
2023-02-19T07:42:36.495Z,80.11
2023-02-19T07:45:04.900Z,80.40
2023-02-19T07:47:34.564Z,80.10
2023-02-19T07:50:02.823Z,79.77
2023-02-19T07:52:30.995Z,80.03
2023-02-19T07:54:59.163Z,79.96
2023-02-19T07:57:29.245Z,79.87
2023-02-19T07:59:57.442Z,79.56
2023-02-19T08:02:43.099Z,79.73
2023-02-19T08:05:13.611Z,79.53
2023-02-19T08:07:41.887Z,79.38
2023-02-19T08:10:27.443Z,79.33
2023-02-19T08:13:18.273Z,79.55
2023-02-19T08:15:47.307Z,79.36
2023-02-19T08:18:16.404Z,79.11
2023-02-19T08:20:46.336Z,79.15
2023-02-19T08:23:15.181Z,79.42
2023-02-19T08:25:43.712Z,79.22
2023-02-19T08:28:13.304Z,78.97
2023-02-19T08:30:44.624Z,78.93
2023-02-19T08:33:13.949Z,78.95
2023-02-19T08:35:43.007Z,78.64
2023-02-19T08:38:13.781Z,78.71
2023-02-19T08:40:42.469Z,78.57
2023-02-19T08:43:12.534Z,78.03
2023-02-19T08:45:42.329Z,77.76
2023-02-19T08:48:11.365Z,77.37
2023-02-19T08:50:39.930Z,77.31
2023-02-19T08:53:08.333Z,77.60
2023-02-19T08:55:38.724Z,77.30
2023-02-19T08:58:07.147Z,77.07
2023-02-19T09:00:35.397Z,76.90
2023-02-19T09:03:03.608Z,76.69
2023-02-19T09:05:31.807Z,75.91
2023-02-19T09:08:00.273Z,75.42
2023-02-19T09:10:28.453Z,75.93
2023-02-19T09:12:58.103Z,75.77
2023-02-19T09:15:26.416Z,75.74
2023-02-19T09:17:54.616Z,75.46
2023-02-19T09:20:23.375Z,75.94
2023-02-19T09:22:51.944Z,75.81
2023-02-19T09:25:20.118Z,75.57
2023-02-19T09:27:48.349Z,75.31
2023-02-19T09:30:18.216Z,75.01
2023-02-19T09:32:46.540Z,75.15
2023-02-19T09:35:14.824Z,75.31
2023-02-19T09:37:43.053Z,74.59
2023-02-19T09:40:12.162Z,74.51
2023-02-19T09:42:42.930Z,74.75
2023-02-19T09:45:17.851Z,74.76
2023-02-19T09:47:47.836Z,75.05
2023-02-19T09:50:21.447Z,74.59
2023-02-19T09:52:54.133Z,74.24
2023-02-19T09:55:30.597Z,73.13
2023-02-19T09:58:01.431Z,73.39
2023-02-19T10:00:34.162Z,72.49
2023-02-19T10:03:06.598Z,72.54
2023-02-19T10:05:35.249Z,72.48
2023-02-19T10:08:09.891Z,72.60
2023-02-19T10:10:39.082Z,72.90
2023-02-19T10:13:20.303Z,71.92
2023-02-19T10:15:52.024Z,72.61
2023-02-19T10:18:24.141Z,71.53
2023-02-19T10:20:54.206Z,71.23
2023-02-19T10:23:23.170Z,71.28
2023-02-19T10:25:54.859Z,71.46
2023-02-19T10:28:26.632Z,71.56
2023-02-19T10:30:57.717Z,71.60
2023-02-19T10:33:30.820Z,71.54
2023-02-19T10:36:00.526Z,71.14
2023-02-19T10:38:30.893Z,71.12
2023-02-19T10:41:02.864Z,71.52
2023-02-19T10:43:34.210Z,71.29
2023-02-19T10:46:06.815Z,70.93
2023-02-19T10:48:41.504Z,70.23
2023-02-19T10:51:12.505Z,69.73
2023-02-19T10:53:46.822Z,69.12
2023-02-19T10:56:17.687Z,69.05
2023-02-19T10:58:47.420Z,69.19
2023-02-19T11:01:19.880Z,68.00
2023-02-19T11:03:49.890Z,67.58
2023-02-19T11:06:21.516Z,66.27
2023-02-19T11:08:54.335Z,65.30
2023-02-19T11:11:25.943Z,66.30
2023-02-19T11:13:55.812Z,66.94
2023-02-19T11:16:24.941Z,67.84
2023-02-19T11:18:58.200Z,67.61
2023-02-19T11:21:32.925Z,66.97
2023-02-19T11:24:02.905Z,66.71
2023-02-19T11:26:38.208Z,65.72
2023-02-19T11:29:19.952Z,65.39
2023-02-19T11:31:48.414Z,65.81
2023-02-19T11:34:31.701Z,64.88
2023-02-19T11:37:11.630Z,65.18
2023-02-19T11:39:42.188Z,64.63
2023-02-19T11:42:42.179Z,63.59
2023-02-19T11:45:28.167Z,64.92
2023-02-19T11:48:22.962Z,65.32
2023-02-19T11:51:06.130Z,65.79
2023-02-19T11:53:37.329Z,65.91
2023-02-19T11:56:15.611Z,66.07
2023-02-19T11:59:01.320Z,65.49
2023-02-19T12:01:51.191Z,65.53
2023-02-19T12:05:02.596Z,65.89
2023-02-19T12:08:03.351Z,66.65
2023-02-19T12:10:39.559Z,66.91
2023-02-19T12:13:17.409Z,66.83
2023-02-19T12:16:11.407Z,66.62
2023-02-19T12:19:18.886Z,66.53
2023-02-19T12:22:11.794Z,65.30
2023-02-19T12:25:24.873Z,65.65
2023-02-19T12:28:10.899Z,65.30
2023-02-19T12:31:07.374Z,64.88
2023-02-19T12:33:58.712Z,65.19
2023-02-19T12:36:36.752Z,64.98
2023-02-19T12:39:15.935Z,64.62
2023-02-19T12:41:53.223Z,64.42
2023-02-19T12:44:28.221Z,65.15
2023-02-19T12:47:01.373Z,65.02
2023-02-19T12:49:34.727Z,64.85
2023-02-19T12:52:08.372Z,65.13
2023-02-19T12:54:41.564Z,65.32
2023-02-19T12:57:15.233Z,65.22
2023-02-19T12:59:47.872Z,65.45
2023-02-19T13:02:20.675Z,65.87
2023-02-19T13:04:57.778Z,65.91
2023-02-19T13:07:34.422Z,66.31
2023-02-19T13:10:16.684Z,66.09
2023-02-19T13:12:48.226Z,65.60
2023-02-19T13:15:20.180Z,65.64
2023-02-19T13:17:52.514Z,65.58
2023-02-19T13:20:27.368Z,65.09
2023-02-19T13:23:19.918Z,64.76
2023-02-19T13:26:05.646Z,65.13
2023-02-19T13:28:51.454Z,65.08
2023-02-19T13:31:39.508Z,65.13
2023-02-19T13:34:21.359Z,65.15
2023-02-19T13:36:50.367Z,65.17
2023-02-19T13:39:20.884Z,65.07
2023-02-19T13:41:52.835Z,64.53
2023-02-19T13:44:26.742Z,64.22
2023-02-19T13:46:55.127Z,64.58
2023-02-19T13:49:42.207Z,64.84
2023-02-19T13:52:41.910Z,65.16
2023-02-19T13:55:49.908Z,65.60
2023-02-19T13:58:37.458Z,65.47
2023-02-19T14:01:08.879Z,65.67
2023-02-19T14:03:50.978Z,66.22
2023-02-19T14:06:19.223Z,66.72
2023-02-19T14:08:50.580Z,66.81
2023-02-19T14:11:39.594Z,66.75
2023-02-19T14:14:28.407Z,66.90
2023-02-19T14:17:04.751Z,66.96
2023-02-19T14:19:52.955Z,66.96
2023-02-19T14:23:03.887Z,67.70
2023-02-19T14:25:42.939Z,67.63
2023-02-19T14:28:46.387Z,67.22
2023-02-19T14:31:24.144Z,67.20
2023-02-19T14:33:56.279Z,67.80
2023-02-19T14:36:45.327Z,68.07
2023-02-19T14:41:47.905Z,68.18
2023-02-19T14:44:20.630Z,68.95
2023-02-19T14:46:55.833Z,68.81
2023-02-19T14:49:31.606Z,68.11
2023-02-19T14:52:04.345Z,68.06
2023-02-19T14:54:45.433Z,67.71
2023-02-19T14:57:19.039Z,67.96
2023-02-19T14:59:55.644Z,68.45
2023-02-19T15:02:26.178Z,68.32
2023-02-19T15:04:56.365Z,68.38
2023-02-19T15:07:30.062Z,68.59
2023-02-19T15:10:05.565Z,67.99
2023-02-19T15:12:41.256Z,68.24
2023-02-19T15:15:10.440Z,68.32
2023-02-19T15:17:42.337Z,68.31
2023-02-19T15:20:18.412Z,68.78
2023-02-19T15:22:47.454Z,68.97
2023-02-19T15:25:19.299Z,68.81
2023-02-19T15:27:47.756Z,68.85
2023-02-19T15:30:24.544Z,68.98
2023-02-19T15:32:55.263Z,68.99
2023-02-19T15:35:26.463Z,69.45
2023-02-19T15:37:56.323Z,69.60
2023-02-19T15:40:30.384Z,69.32
2023-02-19T15:42:59.884Z,68.89
2023-02-19T15:45:32.752Z,68.35
2023-02-19T15:48:05.999Z,68.41
2023-02-19T15:50:37.627Z,68.64
2023-02-19T15:53:10.330Z,68.63
2023-02-19T15:55:42.861Z,69.04
2023-02-19T15:58:17.533Z,68.77
2023-02-19T16:00:49.925Z,68.72
2023-02-19T16:03:20.007Z,68.78
2023-02-19T16:06:00.518Z,68.80
2023-02-19T16:08:31.448Z,68.61
2023-02-19T16:11:01.249Z,68.44
2023-02-19T16:13:31.474Z,68.54
2023-02-19T16:16:14.300Z,68.53
2023-02-19T16:18:46.742Z,68.46
2023-02-19T16:21:21.857Z,68.79
2023-02-19T16:23:54.654Z,68.50
2023-02-19T16:26:23.210Z,68.65
2023-02-19T16:28:53.490Z,68.83
2023-02-19T16:31:24.001Z,68.66
2023-02-19T16:33:52.800Z,69.33
2023-02-19T16:36:27.165Z,69.28
2023-02-19T16:39:14.285Z,69.63
2023-02-19T16:42:14.649Z,69.82
2023-02-19T16:44:43.928Z,69.81
2023-02-19T16:47:21.779Z,69.73
2023-02-19T16:49:50.280Z,69.81
2023-02-19T16:52:18.642Z,70.07
2023-02-19T16:54:48.290Z,69.80
2023-02-19T16:57:18.404Z,69.82
2023-02-19T16:59:46.944Z,70.11
2023-02-19T17:02:20.910Z,70.26
2023-02-19T17:04:50.059Z,69.96
2023-02-19T17:07:19.893Z,69.84
2023-02-19T17:09:48.352Z,69.84
2023-02-19T17:12:19.244Z,69.39
2023-02-19T17:14:47.434Z,69.91
2023-02-19T17:17:15.675Z,69.76
2023-02-19T17:19:43.868Z,70.22
2023-02-19T17:22:16.887Z,69.90
2023-02-19T17:24:46.233Z,70.02
2023-02-19T17:27:14.706Z,70.33
2023-02-19T17:29:44.536Z,70.23
2023-02-19T17:32:14.555Z,70.30
2023-02-19T17:34:43.065Z,70.48
2023-02-19T17:37:11.410Z,70.70
2023-02-19T17:39:39.636Z,70.34
2023-02-19T17:42:08.360Z,70.41
2023-02-19T17:44:36.606Z,71.02
2023-02-19T17:47:07.180Z,70.88
2023-02-19T17:49:36.438Z,70.66
2023-02-19T17:52:04.741Z,70.75
2023-02-19T17:54:32.927Z,70.68
2023-02-19T17:57:01.454Z,70.64
2023-02-19T17:59:29.736Z,70.79
2023-02-19T18:01:57.916Z,70.84
2023-02-19T18:04:27.564Z,71.17
2023-02-19T18:06:56.000Z,71.43
2023-02-19T18:09:24.211Z,71.58
2023-02-19T18:11:52.442Z,71.58
2023-02-19T18:14:20.761Z,71.55
2023-02-19T18:16:50.489Z,71.40
2023-02-19T18:19:19.130Z,71.42
2023-02-19T18:21:48.744Z,71.51
2023-02-19T18:24:16.958Z,71.81
2023-02-19T18:26:45.344Z,71.76
2023-02-19T18:29:14.264Z,71.82
2023-02-19T18:31:42.541Z,71.82
2023-02-19T18:34:19.242Z,71.77
2023-02-19T18:36:50.304Z,72.40
2023-02-19T18:39:18.580Z,72.10
2023-02-19T18:41:50.175Z,71.90
2023-02-19T18:44:20.189Z,71.73
2023-02-19T18:46:48.668Z,72.04
2023-02-19T18:49:17.360Z,72.41
2023-02-19T18:51:45.721Z,72.39
2023-02-19T18:54:15.588Z,72.78
2023-02-19T18:56:44.917Z,72.82
2023-02-19T18:59:13.769Z,73.23
2023-02-19T19:01:42.271Z,73.65
2023-02-19T19:04:10.501Z,73.66
2023-02-19T19:06:38.722Z,73.88
2023-02-19T19:09:07.685Z,74.04
2023-02-19T19:11:38.079Z,73.94
2023-02-19T19:14:06.299Z,74.08
2023-02-19T19:16:34.884Z,74.46
2023-02-19T19:19:03.702Z,74.48
2023-02-19T19:21:32.307Z,74.87
2023-02-19T19:24:00.578Z,74.91
2023-02-19T19:26:28.794Z,74.89
2023-02-19T19:28:58.510Z,75.30
2023-02-19T19:31:27.078Z,75.45
2023-02-19T19:33:55.291Z,75.69
2023-02-19T19:36:24.276Z,76.07
2023-02-19T19:38:52.546Z,76.36
2023-02-19T19:41:21.536Z,76.62
2023-02-19T19:43:49.937Z,76.76
2023-02-19T19:46:20.769Z,76.82
2023-02-19T19:48:49.917Z,76.91
2023-02-19T19:51:18.775Z,77.05
2023-02-19T19:53:49.133Z,77.30
2023-02-19T19:56:18.209Z,77.11
2023-02-19T19:58:46.412Z,77.43
2023-02-19T20:01:15.184Z,77.30
2023-02-19T20:03:44.809Z,77.46
2023-02-19T20:06:13.089Z,77.51
2023-02-19T20:08:41.345Z,77.74
2023-02-19T20:11:11.817Z,77.14
2023-02-19T20:13:40.376Z,77.66
2023-02-19T20:16:11.058Z,77.43
2023-02-19T20:18:39.381Z,77.56
2023-02-19T20:21:11.617Z,77.53
2023-02-19T20:23:41.633Z,77.13
2023-02-19T20:26:10.199Z,77.75
2023-02-19T20:28:38.526Z,77.75
2023-02-19T20:31:09.359Z,77.64
2023-02-19T20:33:37.684Z,77.49
2023-02-19T20:36:07.281Z,77.25
2023-02-19T20:38:36.946Z,77.40
2023-02-19T20:41:05.372Z,77.30
2023-02-19T20:43:33.553Z,77.36
2023-02-19T20:46:01.714Z,77.61
2023-02-19T20:48:29.977Z,77.23
2023-02-19T20:50:59.651Z,77.45
2023-02-19T20:53:28.382Z,77.08
2023-02-19T20:55:58.132Z,77.37
2023-02-19T20:58:27.012Z,77.18
2023-02-19T21:00:55.921Z,77.10
2023-02-19T21:03:24.158Z,77.19
2023-02-19T21:05:52.335Z,77.16
2023-02-19T21:08:20.672Z,76.90
2023-02-19T21:10:49.053Z,77.18
2023-02-19T21:13:18.707Z,77.41
2023-02-19T21:15:47.134Z,77.63
2023-02-19T21:18:16.455Z,77.51
2023-02-19T21:20:45.433Z,77.65
2023-02-19T21:23:14.032Z,77.55
2023-02-19T21:25:42.304Z,77.54
2023-02-19T21:28:10.946Z,77.37
2023-02-19T21:30:40.587Z,76.97
2023-02-19T21:33:08.894Z,77.14
2023-02-19T21:35:37.156Z,77.17
2023-02-19T21:38:05.617Z,77.38
2023-02-19T21:40:34.271Z,77.53
2023-02-19T21:43:02.634Z,77.40
2023-02-19T21:45:31.007Z,77.62
2023-02-19T21:48:00.631Z,77.60
2023-02-19T21:50:28.836Z,77.71
2023-02-19T21:52:57.092Z,77.74
2023-02-19T21:55:25.347Z,77.75
2023-02-19T21:57:54.578Z,77.45
2023-02-19T22:00:23.321Z,77.90
2023-02-19T22:02:51.858Z,77.80
2023-02-19T22:05:21.615Z,77.53
2023-02-19T22:07:50.208Z,77.58
2023-02-19T22:10:18.906Z,77.49
2023-02-19T22:12:47.795Z,77.49
2023-02-19T22:15:16.386Z,77.42
2023-02-19T22:17:44.550Z,77.99
2023-02-19T22:20:13.119Z,78.37
2023-02-19T22:22:43.512Z,78.42
2023-02-19T22:25:11.716Z,78.64
2023-02-19T22:27:40.035Z,78.39
2023-02-19T22:30:09.284Z,78.32
2023-02-19T22:32:37.961Z,78.11
2023-02-19T22:35:06.675Z,78.14
2023-02-19T22:37:34.869Z,77.90
2023-02-19T22:40:04.777Z,78.58
2023-02-19T22:42:35.648Z,78.36
2023-02-19T22:45:04.195Z,78.31
2023-02-19T22:47:32.735Z,78.00
2023-02-19T22:50:01.037Z,78.20
2023-02-19T22:52:29.236Z,78.44
2023-02-19T22:54:58.071Z,78.24
2023-02-19T22:57:28.786Z,78.39
2023-02-19T22:59:57.000Z,78.22
2023-02-19T23:02:25.255Z,78.27
2023-02-19T23:04:53.515Z,78.23
2023-02-19T23:07:21.679Z,78.63
2023-02-19T23:09:49.899Z,78.81
2023-02-19T23:12:18.290Z,78.86
2023-02-19T23:14:48.842Z,78.91
2023-02-19T23:17:17.051Z,79.05
2023-02-19T23:19:45.301Z,79.39
2023-02-19T23:22:13.679Z,79.10
2023-02-19T23:24:41.835Z,78.95
2023-02-19T23:27:10.092Z,79.15
2023-02-19T23:29:38.309Z,79.30
2023-02-19T23:32:08.111Z,79.31
2023-02-19T23:34:36.344Z,79.11
2023-02-19T23:37:05.625Z,79.35
2023-02-19T23:39:34.058Z,79.40
2023-02-19T23:42:02.230Z,79.65
2023-02-19T23:44:30.471Z,79.56
2023-02-19T23:46:58.691Z,79.57
2023-02-19T23:49:28.264Z,79.35
2023-02-19T23:51:56.429Z,79.52
2023-02-19T23:54:24.649Z,79.29
2023-02-19T23:56:52.837Z,79.58
2023-02-19T23:59:21.120Z,79.55
